createdAt,value
2022-08-12T00:00:16.513Z,98881.63
2022-08-12T00:02:44.068Z,98878.88
2022-08-12T00:05:11.930Z,98885.88
2022-08-12T00:07:39.039Z,98890.44
2022-08-12T00:10:07.283Z,98890.84
2022-08-12T00:12:33.616Z,98892.94
2022-08-12T00:15:00.948Z,98896.56
2022-08-12T00:17:27.794Z,98891.66
2022-08-12T00:19:55.699Z,98893.19
2022-08-12T00:22:24.924Z,98894.44
2022-08-12T00:24:57.433Z,98893.03
2022-08-12T00:27:43.952Z,98897.03
2022-08-12T00:30:11.306Z,98895.72
2022-08-12T00:32:38.285Z,98888.75
2022-08-12T00:35:09.057Z,98894.44
2022-08-12T00:37:36.010Z,98880.97
2022-08-12T00:40:04.758Z,98883.50
2022-08-12T00:42:39.441Z,98882.63
2022-08-12T00:45:06.183Z,98873.75
2022-08-12T00:47:33.317Z,98872.38
2022-08-12T00:50:00.786Z,98873.34
2022-08-12T00:52:27.429Z,98874.84
2022-08-12T00:54:55.023Z,98870.94
2022-08-12T00:57:23.336Z,98876.44
2022-08-12T00:59:51.609Z,98866.06
2022-08-12T01:02:36.123Z,98866.69
2022-08-12T01:05:02.603Z,98865.59
2022-08-12T01:07:29.705Z,98864.00
2022-08-12T01:09:56.055Z,98865.09
2022-08-12T01:12:23.703Z,98862.03
2022-08-12T01:14:51.606Z,98862.13
2022-08-12T01:17:18.284Z,98859.91
2022-08-12T01:19:44.877Z,98866.25
2022-08-12T01:22:23.180Z,98870.84
2022-08-12T01:24:58.415Z,98865.34
2022-08-12T01:27:26.707Z,98873.78
2022-08-12T01:29:54.239Z,98868.84
2022-08-12T01:32:21.893Z,98863.59
2022-08-12T01:35:08.631Z,98867.09
2022-08-12T01:37:39.339Z,98864.19
2022-08-12T01:40:34.587Z,98870.38
2022-08-12T01:42:57.676Z,98862.53
2022-08-12T01:45:25.969Z,98855.88
2022-08-12T01:48:01.447Z,98855.50
2022-08-12T01:50:51.367Z,98852.78
2022-08-12T01:53:21.146Z,98853.16
2022-08-12T01:55:50.142Z,98850.34
2022-08-12T01:58:19.480Z,98851.88
2022-08-12T02:00:55.438Z,98851.88
2022-08-12T02:03:30.692Z,98846.81
2022-08-12T02:06:01.860Z,98849.78
2022-08-12T02:08:33.864Z,98852.94
2022-08-12T02:11:21.807Z,98852.44
2022-08-12T02:13:54.212Z,98851.28
2022-08-12T02:16:32.767Z,98863.69
2022-08-12T02:19:22.825Z,98851.97
2022-08-12T02:22:02.927Z,98853.72
2022-08-12T02:24:32.549Z,98842.59
2022-08-12T02:26:59.839Z,98847.16
2022-08-12T02:29:26.740Z,98849.69
2022-08-12T02:31:53.652Z,98848.59
2022-08-12T02:34:20.742Z,98845.78
2022-08-12T02:36:47.810Z,98842.13
2022-08-12T02:39:15.801Z,98845.72
2022-08-12T02:41:43.517Z,98840.81
2022-08-12T02:44:10.466Z,98843.38
2022-08-12T02:46:37.491Z,98833.53
2022-08-12T02:49:13.150Z,98834.44
2022-08-12T02:51:40.378Z,98832.41
2022-08-12T02:54:07.277Z,98833.63
2022-08-12T02:56:35.734Z,98827.69
2022-08-12T02:59:02.208Z,98836.81
2022-08-12T03:01:29.320Z,98833.75
2022-08-12T03:03:59.727Z,98835.16
2022-08-12T03:06:26.619Z,98829.50
2022-08-12T03:08:55.470Z,98838.81
2022-08-12T03:11:37.742Z,98837.97
2022-08-12T03:14:10.154Z,98835.75
2022-08-12T03:16:36.971Z,98839.50
2022-08-12T03:19:06.086Z,98835.00
2022-08-12T03:21:52.780Z,98831.25
2022-08-12T03:24:25.799Z,98829.09
2022-08-12T03:26:54.721Z,98835.53
2022-08-12T03:29:30.639Z,98847.22
2022-08-12T03:32:00.176Z,98837.28
2022-08-12T03:34:28.793Z,98840.56
2022-08-12T03:36:57.179Z,98846.63
2022-08-12T03:39:36.812Z,98846.03
2022-08-12T03:42:09.947Z,98854.63
2022-08-12T03:44:44.362Z,98853.28
2022-08-12T03:47:22.743Z,98849.13
2022-08-12T03:49:50.552Z,98849.72
2022-08-12T03:52:17.243Z,98852.31
2022-08-12T03:54:43.723Z,98845.47
2022-08-12T03:57:10.507Z,98844.50
2022-08-12T03:59:36.883Z,98846.72
2022-08-12T04:02:03.808Z,98852.53
2022-08-12T04:04:31.578Z,98847.97
2022-08-12T04:07:00.808Z,98847.16
2022-08-12T04:09:27.650Z,98845.81
2022-08-12T04:11:54.027Z,98853.28
2022-08-12T04:14:20.479Z,98850.56
2022-08-12T04:16:50.515Z,98849.81
2022-08-12T04:19:19.628Z,98851.91
2022-08-12T04:22:00.979Z,98851.75
2022-08-12T04:24:30.402Z,98843.38
2022-08-12T04:26:58.171Z,98845.81
2022-08-12T04:30:29.101Z,98852.06
2022-08-12T04:32:11.251Z,98850.31
2022-08-12T04:34:37.579Z,98850.78
2022-08-12T04:37:04.095Z,98853.59
2022-08-12T04:39:32.694Z,98856.63
2022-08-12T04:41:59.207Z,98862.16
2022-08-12T04:44:27.063Z,98861.13
2022-08-12T04:46:53.802Z,98853.22
2022-08-12T04:49:21.584Z,98865.53
2022-08-12T04:51:56.768Z,98864.59
2022-08-12T04:54:27.028Z,98864.41
2022-08-12T04:57:03.258Z,98864.41
2022-08-12T04:59:47.276Z,98859.84
2022-08-12T05:02:17.213Z,98865.41
2022-08-12T05:04:49.709Z,98863.13
2022-08-12T05:07:15.995Z,98870.41
2022-08-12T05:09:59.300Z,98862.16
2022-08-12T05:12:30.060Z,98858.91
2022-08-12T05:14:58.300Z,98862.75
2022-08-12T05:17:28.316Z,98861.13
2022-08-12T05:19:54.884Z,98866.16
2022-08-12T05:22:23.899Z,98860.63
2022-08-12T05:24:50.681Z,98866.41
2022-08-12T05:27:17.128Z,98868.50
2022-08-12T05:30:08.355Z,98863.19
2022-08-12T05:32:29.780Z,98868.81
2022-08-12T05:34:58.368Z,98869.03
2022-08-12T05:37:24.760Z,98865.63
2022-08-12T05:39:51.223Z,98861.22
2022-08-12T05:42:18.576Z,98863.75
2022-08-12T05:44:57.522Z,98869.09
2022-08-12T05:47:24.249Z,98861.47
2022-08-12T05:50:10.646Z,98875.41
2022-08-12T05:52:39.920Z,98867.34
2022-08-12T05:55:07.076Z,98876.47
2022-08-12T05:57:34.262Z,98869.75
2022-08-12T06:00:02.440Z,98878.88
2022-08-12T06:02:29.640Z,98879.25
2022-08-12T06:04:58.186Z,98888.78
2022-08-12T06:08:00.331Z,98882.31
2022-08-12T06:10:11.289Z,98893.03
2022-08-12T06:12:39.559Z,98896.25
2022-08-12T06:15:06.184Z,98893.41
2022-08-12T06:17:32.694Z,98894.69
2022-08-12T06:20:26.045Z,98895.69
2022-08-12T06:22:46.786Z,98900.31
2022-08-12T06:25:17.539Z,98894.13
2022-08-12T06:28:06.202Z,98906.78
2022-08-12T06:30:37.863Z,98902.03
2022-08-12T06:33:18.542Z,98911.63
2022-08-12T06:35:50.239Z,98914.97
2022-08-12T06:38:21.950Z,98907.06
2022-08-12T06:40:49.975Z,98910.47
2022-08-12T06:43:16.279Z,98905.41
2022-08-12T06:45:45.722Z,98909.53
2022-08-12T06:48:13.021Z,98912.00
2022-08-12T06:50:40.322Z,98913.19
2022-08-12T06:53:07.247Z,98907.25
2022-08-12T06:55:33.822Z,98910.84
2022-08-12T06:58:07.862Z,98910.81
2022-08-12T07:00:37.762Z,98910.31
2022-08-12T07:03:16.566Z,98911.94
2022-08-12T07:05:51.117Z,98907.16
2022-08-12T07:08:17.836Z,98913.47
2022-08-12T07:10:46.112Z,98913.69
2022-08-12T07:13:14.405Z,98917.00
2022-08-12T07:15:40.866Z,98911.03
2022-08-12T07:18:10.517Z,98911.03
2022-08-12T07:20:52.198Z,98908.88
2022-08-12T07:23:19.577Z,98906.72
2022-08-12T07:25:46.593Z,98907.53
2022-08-12T07:28:16.156Z,98911.31
2022-08-12T07:30:46.252Z,98906.16
2022-08-12T07:33:13.050Z,98910.19
2022-08-12T07:35:40.235Z,98910.75
2022-08-12T07:38:18.043Z,98901.97
2022-08-12T07:41:14.481Z,98899.53
2022-08-12T07:44:04.773Z,98904.63
2022-08-12T07:46:35.713Z,98897.56
2022-08-12T07:49:04.636Z,98901.91
2022-08-12T07:51:31.406Z,98900.38
2022-08-12T07:54:02.984Z,98891.06
2022-08-12T07:56:30.296Z,98902.25
2022-08-12T07:58:57.485Z,98899.00
2022-08-12T08:01:27.216Z,98902.56
2022-08-12T08:04:02.200Z,98894.09
2022-08-12T08:06:28.883Z,98886.94
2022-08-12T08:08:55.271Z,98888.88
2022-08-12T08:11:22.185Z,98887.53
2022-08-12T08:13:48.516Z,98882.25
2022-08-12T08:16:14.995Z,98880.53
2022-08-12T08:18:42.671Z,98885.06
2022-08-12T08:21:09.005Z,98889.13
2022-08-12T08:23:37.149Z,98898.50
2022-08-12T08:26:03.699Z,98893.19
2022-08-12T08:28:31.488Z,98887.16
2022-08-12T08:31:00.183Z,98888.31
2022-08-12T08:34:04.862Z,98887.97
2022-08-12T08:36:16.386Z,98891.28
2022-08-12T08:38:57.778Z,98890.72
2022-08-12T08:42:17.089Z,98885.63
2022-08-12T08:44:13.931Z,98878.84
2022-08-12T08:46:40.938Z,98882.91
2022-08-12T08:49:07.516Z,98883.50
2022-08-12T08:51:33.984Z,98888.31
2022-08-12T08:54:02.796Z,98881.13
2022-08-12T08:56:29.386Z,98883.84
2022-08-12T08:58:56.348Z,98892.72
2022-08-12T09:01:22.751Z,98886.50
2022-08-12T09:05:09.570Z,98886.78
2022-08-12T09:06:37.115Z,98882.56
2022-08-12T09:09:12.775Z,98881.53
2022-08-12T09:12:07.130Z,98891.16
2022-08-12T09:14:29.501Z,98900.69
2022-08-12T09:16:55.896Z,98892.06
2022-08-12T09:19:27.423Z,98898.13
2022-08-12T09:21:55.522Z,98886.63
2022-08-12T09:24:22.284Z,98886.59
2022-08-12T09:26:49.336Z,98883.38
2022-08-12T09:29:16.640Z,98876.13
2022-08-12T09:32:03.275Z,98878.22
2022-08-12T09:34:37.604Z,98873.34
2022-08-12T09:37:19.312Z,98869.00
2022-08-12T09:40:03.159Z,98858.00
2022-08-12T09:42:42.923Z,98855.81
2022-08-12T09:45:23.330Z,98860.63
2022-08-12T09:47:59.142Z,98852.09
2022-08-12T09:50:26.447Z,98853.25
2022-08-12T09:53:06.510Z,98853.38
2022-08-12T09:56:06.219Z,98842.47
2022-08-12T09:58:58.288Z,98850.41
2022-08-12T10:01:23.330Z,98849.25
2022-08-12T10:03:55.446Z,98837.41
2022-08-12T10:06:32.472Z,98836.69
2022-08-12T10:09:06.443Z,98834.78
2022-08-12T10:12:10.287Z,98839.69
2022-08-12T10:14:21.651Z,98827.28
2022-08-12T10:17:01.402Z,98826.84
2022-08-12T10:19:36.623Z,98828.13
2022-08-12T10:22:03.618Z,98825.91
2022-08-12T10:24:30.086Z,98818.25
2022-08-12T10:26:56.521Z,98819.06
2022-08-12T10:30:38.427Z,98822.34
2022-08-12T10:32:22.383Z,98823.75
2022-08-12T10:34:58.196Z,98806.94
2022-08-12T10:38:35.547Z,98798.81
2022-08-12T10:40:15.749Z,98803.75
2022-08-12T10:42:46.918Z,98812.59
2022-08-12T10:45:14.240Z,98802.13
2022-08-12T10:48:07.360Z,98817.28
2022-08-12T10:50:56.153Z,98803.34
2022-08-12T10:53:19.932Z,98808.50
2022-08-12T10:55:47.381Z,98797.94
2022-08-12T10:58:31.915Z,98806.78
2022-08-12T11:03:01.489Z,98801.25
2022-08-12T11:04:22.340Z,98797.63
2022-08-12T11:07:08.743Z,98789.88
2022-08-12T11:09:19.044Z,98784.63
2022-08-12T11:12:35.136Z,98780.69
2022-08-12T11:14:53.137Z,98776.72
2022-08-12T11:17:43.607Z,98780.38
2022-08-12T11:20:07.568Z,98774.59
2022-08-12T11:22:34.158Z,98776.03
2022-08-12T11:25:01.265Z,98767.72
2022-08-12T11:27:37.828Z,98775.44
2022-08-12T11:30:06.748Z,98774.97
2022-08-12T11:32:51.382Z,98760.06
2022-08-12T11:35:17.989Z,98759.25
2022-08-12T11:37:57.878Z,98754.13
2022-08-12T11:40:25.021Z,98765.56
2022-08-12T11:42:52.544Z,98764.00
2022-08-12T11:45:21.180Z,98767.22
2022-08-12T11:47:50.427Z,98767.09
2022-08-12T11:53:02.832Z,98765.94
2022-08-12T11:55:29.752Z,98752.50
2022-08-12T11:58:42.306Z,98740.69
2022-08-12T12:03:44.256Z,98751.53
2022-08-12T12:06:23.562Z,98754.47
2022-08-12T12:08:53.633Z,98751.91
2022-08-12T12:11:21.969Z,98743.09
2022-08-12T12:14:07.252Z,98744.72
2022-08-12T12:16:38.439Z,98731.06
2022-08-12T12:19:06.182Z,98749.28
2022-08-12T12:21:47.574Z,98740.84
2022-08-12T12:24:20.953Z,98742.91
2022-08-12T12:26:59.694Z,98739.56
2022-08-12T12:30:17.613Z,98739.53
2022-08-12T12:32:14.186Z,98733.72
2022-08-12T12:35:13.161Z,98740.72
2022-08-12T12:38:05.013Z,98741.50
2022-08-12T12:40:14.298Z,98734.03
2022-08-12T12:42:42.786Z,98732.06
2022-08-12T12:45:26.102Z,98725.66
2022-08-12T12:47:55.016Z,98726.28
2022-08-12T12:50:35.334Z,98723.84
2022-08-12T12:53:02.999Z,98733.66
2022-08-12T12:55:35.469Z,98730.75
2022-08-12T12:58:02.368Z,98720.09
2022-08-12T13:00:28.903Z,98720.03
2022-08-12T13:02:55.527Z,98725.09
2022-08-12T13:05:27.807Z,98724.44
2022-08-12T13:08:01.147Z,98713.72
2022-08-12T13:10:32.135Z,98725.09
2022-08-12T13:15:51.440Z,98711.50
2022-08-12T13:18:18.209Z,98708.56
2022-08-12T13:20:45.818Z,98710.75
2022-08-12T13:23:36.984Z,98704.97
2022-08-12T13:26:00.508Z,98703.75
2022-08-12T13:28:28.440Z,98707.28
2022-08-12T13:30:56.190Z,98705.06
2022-08-12T13:33:22.525Z,98707.59
2022-08-12T13:36:05.154Z,98704.03
2022-08-12T13:38:35.525Z,98703.59
2022-08-12T13:41:11.735Z,98688.66
2022-08-12T13:43:40.293Z,98693.72
2022-08-12T13:46:08.315Z,98692.97
2022-08-12T13:48:38.843Z,98684.50
2022-08-12T13:51:11.072Z,98683.41
2022-08-12T13:53:54.841Z,98680.13
2022-08-12T13:56:23.743Z,98688.00
2022-08-12T13:58:52.547Z,98703.22
2022-08-12T14:01:20.242Z,98686.75
2022-08-12T14:03:51.104Z,98689.03
2022-08-12T14:06:20.434Z,98697.97
2022-08-12T14:08:49.812Z,98697.75
2022-08-12T14:11:17.693Z,98694.13
2022-08-12T14:14:03.350Z,98692.59
2022-08-12T14:16:46.735Z,98687.00
2022-08-12T14:19:22.366Z,98675.72
2022-08-12T14:22:01.530Z,98672.66
2022-08-12T14:24:31.997Z,98671.41
2022-08-12T14:27:02.099Z,98667.00
2022-08-12T14:29:55.645Z,98664.75
2022-08-12T14:32:18.251Z,98651.94
2022-08-12T14:34:46.792Z,98659.91
2022-08-12T14:37:54.871Z,98663.00
2022-08-12T14:40:01.218Z,98670.41
2022-08-12T14:42:28.230Z,98672.16
2022-08-12T14:44:57.268Z,98680.25
2022-08-12T14:47:35.287Z,98673.56
2022-08-12T14:50:37.680Z,98678.81
2022-08-12T14:54:55.858Z,98679.91
2022-08-12T14:58:21.412Z,98673.53
2022-08-12T15:00:52.151Z,98668.06
2022-08-12T15:03:52.951Z,98673.97
2022-08-12T15:06:44.368Z,98668.38
2022-08-12T15:09:02.427Z,98665.63
2022-08-12T15:11:55.579Z,98658.59
2022-08-12T15:14:19.097Z,98653.59
2022-08-12T15:16:45.502Z,98651.53
2022-08-12T15:19:39.084Z,98649.38
2022-08-12T15:22:37.373Z,98649.69
2022-08-12T15:24:45.045Z,98640.81
2022-08-12T15:27:15.773Z,98651.72
2022-08-12T15:29:52.350Z,98657.09
2022-08-12T15:32:32.247Z,98656.63
2022-08-12T15:34:59.827Z,98665.69
2022-08-12T15:38:08.285Z,98664.53
2022-08-12T15:40:14.289Z,98660.47
2022-08-12T15:42:50.761Z,98656.28
2022-08-12T15:45:21.367Z,98659.53
2022-08-12T15:47:50.493Z,98659.41
2022-08-12T15:50:23.237Z,98653.38
2022-08-12T15:52:53.085Z,98654.56
2022-08-12T15:55:21.471Z,98653.94
2022-08-12T15:57:50.406Z,98650.13
2022-08-12T16:00:31.846Z,98652.69
2022-08-12T16:03:05.686Z,98658.34
2022-08-12T16:06:15.536Z,98662.66
2022-08-12T16:08:27.254Z,98663.69
2022-08-12T16:10:54.245Z,98660.53
2022-08-12T16:13:25.425Z,98662.75
2022-08-12T16:16:02.413Z,98653.00
2022-08-12T16:18:31.622Z,98651.59
2022-08-12T16:20:59.395Z,98651.47
2022-08-12T16:23:36.360Z,98658.56
2022-08-12T16:26:15.481Z,98652.53
2022-08-12T16:28:47.219Z,98645.78
2022-08-12T16:31:23.374Z,98639.56
2022-08-12T16:33:56.269Z,98643.63
2022-08-12T16:36:26.694Z,98648.59
2022-08-12T16:38:53.112Z,98650.84
2022-08-12T16:41:20.717Z,98635.75
2022-08-12T16:43:47.963Z,98641.16
2022-08-12T16:46:31.570Z,98640.22
2022-08-12T16:49:08.874Z,98630.28
2022-08-12T16:51:40.389Z,98635.41
2022-08-12T16:54:14.271Z,98634.25
2022-08-12T16:56:54.840Z,98635.84
2022-08-12T16:59:24.102Z,98637.63
2022-08-12T17:01:51.699Z,98639.06
2022-08-12T17:04:18.530Z,98642.63
2022-08-12T17:06:45.435Z,98633.78
2022-08-12T17:09:17.888Z,98646.09
2022-08-12T17:11:44.942Z,98631.53
2022-08-12T17:14:15.396Z,98639.38
2022-08-12T17:16:41.737Z,98638.06
2022-08-12T17:19:09.750Z,98634.78
2022-08-12T17:21:41.277Z,98635.50
2022-08-12T17:24:21.488Z,98633.19
2022-08-12T17:26:51.754Z,98632.06
2022-08-12T17:29:19.004Z,98626.09
2022-08-12T17:32:01.144Z,98629.84
2022-08-12T17:34:30.301Z,98628.97
2022-08-12T17:36:56.648Z,98629.13
2022-08-12T17:39:23.586Z,98623.66
2022-08-12T17:41:56.542Z,98638.66
2022-08-12T17:44:23.646Z,98643.97
2022-08-12T17:46:53.940Z,98644.09
2022-08-12T17:50:03.190Z,98641.63
2022-08-12T17:52:08.932Z,98638.28
2022-08-12T17:54:37.215Z,98639.09
2022-08-12T17:57:16.257Z,98648.38
2022-08-12T17:59:48.717Z,98640.72
2022-08-12T18:02:16.635Z,98641.16
2022-08-12T18:05:05.252Z,98650.81
2022-08-12T18:07:30.284Z,98642.59
2022-08-12T18:10:02.431Z,98644.03
2022-08-12T18:12:34.779Z,98653.19
2022-08-12T18:15:08.719Z,98643.66
2022-08-12T18:17:39.066Z,98649.41
2022-08-12T18:20:07.891Z,98652.53
2022-08-12T18:22:35.137Z,98646.81
2022-08-12T18:25:04.705Z,98658.34
2022-08-12T18:27:44.358Z,98655.75
2022-08-12T18:30:20.343Z,98660.06
2022-08-12T18:32:59.470Z,98653.53
2022-08-12T18:35:47.201Z,98659.72
2022-08-12T18:38:17.149Z,98650.00
2022-08-12T18:40:45.421Z,98652.44
2022-08-12T18:43:15.159Z,98649.34
2022-08-12T18:45:47.080Z,98661.63
2022-08-12T18:48:24.378Z,98661.81
2022-08-12T18:51:03.715Z,98659.59
2022-08-12T18:54:06.648Z,98675.00
2022-08-12T18:56:33.272Z,98679.97
2022-08-12T18:59:01.753Z,98675.56
2022-08-12T19:02:20.551Z,98681.41
2022-08-12T19:04:16.206Z,98680.69
2022-08-12T19:06:46.401Z,98684.63
2022-08-12T19:09:14.379Z,98683.06
2022-08-12T19:11:45.371Z,98697.84
2022-08-12T19:14:11.744Z,98706.66
2022-08-12T19:16:41.517Z,98710.00
2022-08-12T19:19:11.433Z,98713.88
2022-08-12T19:21:44.579Z,98715.03
2022-08-12T19:24:23.185Z,98712.88
2022-08-12T19:26:57.320Z,98712.91
2022-08-12T19:29:23.934Z,98715.38
2022-08-12T19:31:58.131Z,98714.59
2022-08-12T19:37:27.154Z,98710.84
2022-08-12T19:40:09.975Z,98715.81
2022-08-12T19:42:48.443Z,98712.56
2022-08-12T19:45:20.436Z,98717.22
2022-08-12T19:47:48.697Z,98716.19
2022-08-12T19:50:20.214Z,98723.56
2022-08-12T19:52:50.888Z,98721.91
2022-08-12T19:55:21.281Z,98722.22
2022-08-12T19:58:02.539Z,98723.59
2022-08-12T20:00:30.313Z,98726.63
2022-08-12T20:02:56.949Z,98722.81
2022-08-12T20:06:06.240Z,98725.25
2022-08-12T20:08:33.060Z,98727.47
2022-08-12T20:12:13.089Z,98728.03
2022-08-12T20:13:47.731Z,98720.44
2022-08-12T20:16:52.902Z,98725.94
2022-08-12T20:19:14.144Z,98731.13
2022-08-12T20:21:42.574Z,98731.97
2022-08-12T20:24:10.725Z,98731.69
2022-08-12T20:26:39.999Z,98725.44
2022-08-12T20:29:06.864Z,98724.38
2022-08-12T20:31:35.674Z,98724.41
2022-08-12T20:34:03.045Z,98727.69
2022-08-12T20:36:40.769Z,98725.81
2022-08-12T20:39:34.104Z,98727.16
2022-08-12T20:42:00.594Z,98733.44
2022-08-12T20:44:28.040Z,98737.19
2022-08-12T20:46:55.417Z,98731.72
2022-08-12T20:49:25.827Z,98726.81
2022-08-12T20:52:02.244Z,98733.31
2022-08-12T20:54:32.476Z,98727.88
2022-08-12T20:57:00.921Z,98723.78
2022-08-12T20:59:31.767Z,98732.97
2022-08-12T21:01:58.536Z,98723.47
2022-08-12T21:04:31.297Z,98722.34
2022-08-12T21:06:58.213Z,98719.53
2022-08-12T21:09:40.569Z,98720.84
2022-08-12T21:12:28.262Z,98721.63
2022-08-12T21:14:58.881Z,98716.97
2022-08-12T21:18:00.954Z,98715.31
2022-08-12T21:20:22.490Z,98716.41
2022-08-12T21:22:51.363Z,98710.34
2022-08-12T21:25:18.137Z,98710.06
2022-08-12T21:27:58.037Z,98711.66
2022-08-12T21:30:37.157Z,98711.06
2022-08-12T21:33:04.527Z,98712.09
2022-08-12T21:35:40.041Z,98705.31
2022-08-12T21:38:07.331Z,98712.25
2022-08-12T21:40:37.173Z,98710.06
2022-08-12T21:43:17.946Z,98705.16
2022-08-12T21:46:00.792Z,98719.50
2022-08-12T21:48:28.920Z,98713.22
2022-08-12T21:50:56.234Z,98714.84
2022-08-12T21:54:05.852Z,98712.34
2022-08-12T21:56:11.019Z,98710.59
2022-08-12T21:58:57.582Z,98716.69
2022-08-12T22:10:28.559Z,98701.22
2022-08-12T22:15:50.966Z,98706.75
2022-08-12T22:18:56.743Z,98716.97
2022-08-12T22:21:29.392Z,98716.38
2022-08-12T22:24:35.191Z,98717.38
2022-08-12T23:06:10.551Z,98713.38
2022-08-12T23:08:37.798Z,98709.88
2022-08-12T23:11:06.381Z,98710.69
2022-08-12T23:13:43.395Z,98706.84
2022-08-12T23:16:18.117Z,98710.31
2022-08-12T23:18:54.154Z,98710.78
2022-08-12T23:21:24.501Z,98721.81
2022-08-12T23:24:09.596Z,98719.44
2022-08-12T23:26:37.089Z,98713.47
2022-08-12T23:29:25.991Z,98716.25
2022-08-12T23:32:01.791Z,98702.09
2022-08-12T23:34:34.983Z,98705.75
2022-08-12T23:37:01.847Z,98697.41
2022-08-12T23:40:13.829Z,98697.56
2022-08-12T23:42:19.430Z,98704.50
2022-08-12T23:44:46.372Z,98708.72
2022-08-12T23:47:14.786Z,98687.41
2022-08-12T23:49:58.103Z,98689.38
2022-08-12T23:52:28.543Z,98685.06
2022-08-12T23:55:23.874Z,98695.53
2022-08-12T23:58:17.901Z,98689.00
